sensor_id;sensor_type;location;lat;lon;timestamp;pressure;altitude;pressure_sealevel;temperature;humidity
69060;BME280;56135;37.534;-122.308;2022-07-24T00:02:01;100962.72;;;20.56;52.13
69060;BME280;56135;37.534;-122.308;2022-07-24T00:04:27;100960.44;;;20.48;52.05
69060;BME280;56135;37.534;-122.308;2022-07-24T00:06:52;100966.50;;;20.35;52.52
69060;BME280;56135;37.534;-122.308;2022-07-24T00:09:18;100963.97;;;20.31;52.64
69060;BME280;56135;37.534;-122.308;2022-07-24T00:11:44;100960.88;;;20.22;52.95
69060;BME280;56135;37.534;-122.308;2022-07-24T00:14:10;100960.59;;;20.09;53.15
69060;BME280;56135;37.534;-122.308;2022-07-24T00:16:36;100958.91;;;19.89;53.63
69060;BME280;56135;37.534;-122.308;2022-07-24T00:19:02;100953.69;;;19.86;53.61
69060;BME280;56135;37.534;-122.308;2022-07-24T00:21:27;100954.25;;;19.73;53.95
69060;BME280;56135;37.534;-122.308;2022-07-24T00:23:53;100957.44;;;19.62;54.32
69060;BME280;56135;37.534;-122.308;2022-07-24T00:26:19;100950.06;;;19.48;54.80
69060;BME280;56135;37.534;-122.308;2022-07-24T00:28:45;100957.53;;;19.42;54.89
69060;BME280;56135;37.534;-122.308;2022-07-24T00:31:11;100947.44;;;19.28;55.23
69060;BME280;56135;37.534;-122.308;2022-07-24T00:33:36;100959.50;;;19.17;55.37
69060;BME280;56135;37.534;-122.308;2022-07-24T00:36:02;100952.19;;;19.02;55.97
69060;BME280;56135;37.534;-122.308;2022-07-24T00:38:28;100958.94;;;18.90;56.27
69060;BME280;56135;37.534;-122.308;2022-07-24T00:40:54;100949.72;;;18.75;56.48
69060;BME280;56135;37.534;-122.308;2022-07-24T00:43:19;100943.16;;;18.62;57.00
69060;BME280;56135;37.534;-122.308;2022-07-24T00:45:46;100944.56;;;18.50;57.54
69060;BME280;56135;37.534;-122.308;2022-07-24T00:48:12;100952.81;;;18.45;57.72
69060;BME280;56135;37.534;-122.308;2022-07-24T00:50:38;100959.38;;;18.38;57.90
69060;BME280;56135;37.534;-122.308;2022-07-24T00:53:04;100961.06;;;18.19;58.66
69060;BME280;56135;37.534;-122.308;2022-07-24T00:55:30;100962.13;;;18.14;58.60
69060;BME280;56135;37.534;-122.308;2022-07-24T00:57:57;100952.28;;;18.15;58.42
69060;BME280;56135;37.534;-122.308;2022-07-24T01:00:23;100961.81;;;18.00;59.02
69060;BME280;56135;37.534;-122.308;2022-07-24T01:02:49;100958.44;;;17.95;59.08
69060;BME280;56135;37.534;-122.308;2022-07-24T01:05:15;100962.88;;;17.96;59.11
69060;BME280;56135;37.534;-122.308;2022-07-24T01:07:41;100957.91;;;17.85;59.55
69060;BME280;56135;37.534;-122.308;2022-07-24T01:10:07;100952.19;;;17.72;59.54
69060;BME280;56135;37.534;-122.308;2022-07-24T01:12:34;100945.41;;;17.63;59.91
69060;BME280;56135;37.534;-122.308;2022-07-24T01:15:00;100954.00;;;17.48;60.47
69060;BME280;56135;37.534;-122.308;2022-07-24T01:17:30;100950.53;;;17.46;60.92
69060;BME280;56135;37.534;-122.308;2022-07-24T01:19:56;100958.03;;;17.36;60.64
69060;BME280;56135;37.534;-122.308;2022-07-24T01:22:22;100961.78;;;17.30;61.45
69060;BME280;56135;37.534;-122.308;2022-07-24T01:24:48;100960.28;;;17.23;61.30
69060;BME280;56135;37.534;-122.308;2022-07-24T01:27:14;100956.06;;;17.16;61.62
69060;BME280;56135;37.534;-122.308;2022-07-24T01:29:40;100955.63;;;17.05;62.71
69060;BME280;56135;37.534;-122.308;2022-07-24T01:32:06;100950.63;;;16.95;62.52
69060;BME280;56135;37.534;-122.308;2022-07-24T01:34:32;100945.50;;;16.88;62.59
69060;BME280;56135;37.534;-122.308;2022-07-24T01:36:58;100948.56;;;16.77;63.82
69060;BME280;56135;37.534;-122.308;2022-07-24T01:39:23;100943.34;;;16.74;63.57
69060;BME280;56135;37.534;-122.308;2022-07-24T01:41:49;100939.97;;;16.68;63.92
69060;BME280;56135;37.534;-122.308;2022-07-24T01:44:15;100947.09;;;16.68;63.93
69060;BME280;56135;37.534;-122.308;2022-07-24T01:46:41;100944.78;;;16.57;63.82
69060;BME280;56135;37.534;-122.308;2022-07-24T01:49:06;100942.75;;;16.39;64.48
69060;BME280;56135;37.534;-122.308;2022-07-24T01:51:32;100946.81;;;16.24;65.05
69060;BME280;56135;37.534;-122.308;2022-07-24T01:53:58;100939.94;;;16.16;64.92
69060;BME280;56135;37.534;-122.308;2022-07-24T01:56:24;100934.97;;;16.06;65.54
69060;BME280;56135;37.534;-122.308;2022-07-24T01:58:50;100942.22;;;16.00;65.88
69060;BME280;56135;37.534;-122.308;2022-07-24T02:01:15;100934.66;;;15.88;66.29
69060;BME280;56135;37.534;-122.308;2022-07-24T02:03:41;100939.56;;;15.72;66.60
69060;BME280;56135;37.534;-122.308;2022-07-24T02:06:07;100954.84;;;15.65;66.77
69060;BME280;56135;37.534;-122.308;2022-07-24T02:08:33;100948.66;;;15.65;67.15
69060;BME280;56135;37.534;-122.308;2022-07-24T02:10:59;100958.38;;;15.66;67.18
69060;BME280;56135;37.534;-122.308;2022-07-24T02:13:25;100961.09;;;15.64;67.14
69060;BME280;56135;37.534;-122.308;2022-07-24T02:15:51;100967.31;;;15.63;67.45
69060;BME280;56135;37.534;-122.308;2022-07-24T02:18:18;100969.50;;;15.50;66.89
69060;BME280;56135;37.534;-122.308;2022-07-24T02:20:44;100978.78;;;15.35;67.60
69060;BME280;56135;37.534;-122.308;2022-07-24T02:23:09;100985.19;;;15.30;67.38
69060;BME280;56135;37.534;-122.308;2022-07-24T02:25:35;100988.88;;;15.24;67.93
69060;BME280;56135;37.534;-122.308;2022-07-24T02:28:01;100980.28;;;15.14;68.44
69060;BME280;56135;37.534;-122.308;2022-07-24T02:30:27;100983.19;;;15.05;68.71
69060;BME280;56135;37.534;-122.308;2022-07-24T02:32:53;100978.09;;;14.97;68.93
69060;BME280;56135;37.534;-122.308;2022-07-24T02:35:18;100983.63;;;14.90;69.17
69060;BME280;56135;37.534;-122.308;2022-07-24T02:37:45;100985.75;;;14.77;69.52
69060;BME280;56135;37.534;-122.308;2022-07-24T02:40:11;100982.38;;;14.70;69.91
69060;BME280;56135;37.534;-122.308;2022-07-24T02:42:37;100990.44;;;14.65;69.75
69060;BME280;56135;37.534;-122.308;2022-07-24T02:45:04;100987.03;;;14.59;70.26
69060;BME280;56135;37.534;-122.308;2022-07-24T02:47:30;100983.66;;;14.52;69.97
69060;BME280;56135;37.534;-122.308;2022-07-24T02:49:56;100987.38;;;14.46;70.66
69060;BME280;56135;37.534;-122.308;2022-07-24T02:52:21;100993.81;;;14.38;70.81
69060;BME280;56135;37.534;-122.308;2022-07-24T02:54:47;100990.38;;;14.32;71.47
69060;BME280;56135;37.534;-122.308;2022-07-24T02:57:13;100993.19;;;14.26;71.89
69060;BME280;56135;37.534;-122.308;2022-07-24T02:59:39;100982.69;;;14.20;71.30
69060;BME280;56135;37.534;-122.308;2022-07-24T03:02:05;100984.75;;;14.09;72.16
69060;BME280;56135;37.534;-122.308;2022-07-24T03:04:31;100990.09;;;14.06;72.06
69060;BME280;56135;37.534;-122.308;2022-07-24T03:06:57;100995.59;;;13.99;72.58
69060;BME280;56135;37.534;-122.308;2022-07-24T03:09:22;100991.25;;;13.95;72.60
69060;BME280;56135;37.534;-122.308;2022-07-24T03:11:48;100983.28;;;13.94;72.91
69060;BME280;56135;37.534;-122.308;2022-07-24T03:14:14;100990.47;;;13.90;73.64
69060;BME280;56135;37.534;-122.308;2022-07-24T03:16:40;100993.19;;;13.87;73.24
69060;BME280;56135;37.534;-122.308;2022-07-24T03:19:05;101002.22;;;13.80;73.71
69060;BME280;56135;37.534;-122.308;2022-07-24T03:21:31;101000.63;;;13.73;73.37
69060;BME280;56135;37.534;-122.308;2022-07-24T03:23:57;100998.03;;;13.68;73.89
69060;BME280;56135;37.534;-122.308;2022-07-24T03:26:23;101002.59;;;13.61;74.38
69060;BME280;56135;37.534;-122.308;2022-07-24T03:28:48;100998.19;;;13.60;74.36
69060;BME280;56135;37.534;-122.308;2022-07-24T03:31:14;100997.41;;;13.55;74.07
69060;BME280;56135;37.534;-122.308;2022-07-24T03:33:40;101002.88;;;13.49;74.42
69060;BME280;56135;37.534;-122.308;2022-07-24T03:36:06;101004.75;;;13.44;74.97
69060;BME280;56135;37.534;-122.308;2022-07-24T03:38:51;101011.94;;;13.39;74.74
69060;BME280;56135;37.534;-122.308;2022-07-24T03:41:17;101016.41;;;13.33;75.43
69060;BME280;56135;37.534;-122.308;2022-07-24T03:43:43;101015.66;;;13.27;75.50
69060;BME280;56135;37.534;-122.308;2022-07-24T03:46:08;101016.69;;;13.20;75.62
69060;BME280;56135;37.534;-122.308;2022-07-24T03:48:34;101011.53;;;13.12;75.79
69060;BME280;56135;37.534;-122.308;2022-07-24T03:51:00;101009.84;;;13.06;76.29
69060;BME280;56135;37.534;-122.308;2022-07-24T03:53:26;101006.41;;;13.02;75.67
69060;BME280;56135;37.534;-122.308;2022-07-24T03:55:51;101015.31;;;12.97;76.75
69060;BME280;56135;37.534;-122.308;2022-07-24T03:58:17;101026.94;;;12.91;76.86
69060;BME280;56135;37.534;-122.308;2022-07-24T04:00:43;101026.19;;;12.83;77.38
69060;BME280;56135;37.534;-122.308;2022-07-24T04:03:09;101031.56;;;12.78;77.37
69060;BME280;56135;37.534;-122.308;2022-07-24T04:05:34;101033.44;;;12.73;78.08
69060;BME280;56135;37.534;-122.308;2022-07-24T04:08:03;101045.06;;;12.64;78.70
69060;BME280;56135;37.534;-122.308;2022-07-24T04:10:29;101043.38;;;12.60;78.37
69060;BME280;56135;37.534;-122.308;2022-07-24T04:12:54;101037.34;;;12.50;79.05
69060;BME280;56135;37.534;-122.308;2022-07-24T04:15:20;101038.38;;;12.42;79.17
69060;BME280;56135;37.534;-122.308;2022-07-24T04:17:46;101034.09;;;12.33;79.06
69060;BME280;56135;37.534;-122.308;2022-07-24T04:20:12;101035.97;;;12.25;80.11
69060;BME280;56135;37.534;-122.308;2022-07-24T04:22:38;101030.78;;;12.17;80.06
69060;BME280;56135;37.534;-122.308;2022-07-24T04:25:05;101039.75;;;12.10;79.90
69060;BME280;56135;37.534;-122.308;2022-07-24T04:27:31;101039.75;;;12.07;80.44
69060;BME280;56135;37.534;-122.308;2022-07-24T04:29:57;101039.88;;;12.00;81.10
69060;BME280;56135;37.534;-122.308;2022-07-24T04:32:23;101051.34;;;11.99;81.36
69060;BME280;56135;37.534;-122.308;2022-07-24T04:34:50;101054.03;;;11.93;81.42
69060;BME280;56135;37.534;-122.308;2022-07-24T04:37:15;101047.94;;;11.90;81.09
69060;BME280;56135;37.534;-122.308;2022-07-24T04:39:41;101048.88;;;11.84;81.75
69060;BME280;56135;37.534;-122.308;2022-07-24T04:42:07;101050.59;;;11.87;81.59
69060;BME280;56135;37.534;-122.308;2022-07-24T04:44:32;101048.03;;;11.82;81.77
69060;BME280;56135;37.534;-122.308;2022-07-24T04:46:58;101051.56;;;11.81;82.10
69060;BME280;56135;37.534;-122.308;2022-07-24T04:49:24;101042.78;;;11.77;82.45
69060;BME280;56135;37.534;-122.308;2022-07-24T04:51:50;101045.44;;;11.76;82.45
69060;BME280;56135;37.534;-122.308;2022-07-24T04:54:16;101046.38;;;11.72;83.03
69060;BME280;56135;37.534;-122.308;2022-07-24T04:56:42;101051.72;;;11.68;82.30
69060;BME280;56135;37.534;-122.308;2022-07-24T04:59:07;101056.13;;;11.68;82.59
69060;BME280;56135;37.534;-122.308;2022-07-24T05:01:33;101051.75;;;11.65;82.73
69060;BME280;56135;37.534;-122.308;2022-07-24T05:03:59;101060.59;;;11.64;81.39
69060;BME280;56135;37.534;-122.308;2022-07-24T05:06:25;101060.66;;;11.58;82.28
69060;BME280;56135;37.534;-122.308;2022-07-24T05:08:51;101060.72;;;11.55;82.35
69060;BME280;56135;37.534;-122.308;2022-07-24T05:11:17;101067.81;;;11.48;82.42
69060;BME280;56135;37.534;-122.308;2022-07-24T05:13:42;101065.19;;;11.47;82.96
69060;BME280;56135;37.534;-122.308;2022-07-24T05:16:08;101064.38;;;11.42;82.81
69060;BME280;56135;37.534;-122.308;2022-07-24T05:18:34;101064.38;;;11.40;82.88
69060;BME280;56135;37.534;-122.308;2022-07-24T05:21:00;101069.72;;;11.37;82.77
69060;BME280;56135;37.534;-122.308;2022-07-24T05:23:25;101072.38;;;11.37;83.24
69060;BME280;56135;37.534;-122.308;2022-07-24T05:25:51;101072.41;;;11.32;83.31
69060;BME280;56135;37.534;-122.308;2022-07-24T05:28:17;101068.03;;;11.28;82.64
69060;BME280;56135;37.534;-122.308;2022-07-24T05:30:43;101068.09;;;11.24;83.48
69060;BME280;56135;37.534;-122.308;2022-07-24T05:33:09;101071.63;;;11.23;83.70
69060;BME280;56135;37.534;-122.308;2022-07-24T05:35:34;101070.75;;;11.21;82.99
69060;BME280;56135;37.534;-122.308;2022-07-24T05:38:00;101067.22;;;11.22;84.31
69060;BME280;56135;37.534;-122.308;2022-07-24T05:40:26;101073.44;;;11.19;85.00
69060;BME280;56135;37.534;-122.308;2022-07-24T05:42:51;101075.19;;;11.20;85.75
69060;BME280;56135;37.534;-122.308;2022-07-24T05:45:17;101069.91;;;11.20;86.24
69060;BME280;56135;37.534;-122.308;2022-07-24T05:47:43;101078.75;;;11.16;85.55
69060;BME280;56135;37.534;-122.308;2022-07-24T05:50:09;101076.13;;;11.14;86.14
69060;BME280;56135;37.534;-122.308;2022-07-24T05:52:36;101078.78;;;11.14;86.75
69060;BME280;56135;37.534;-122.308;2022-07-24T05:55:02;101077.03;;;11.12;85.43
69060;BME280;56135;37.534;-122.308;2022-07-24T05:57:28;101083.19;;;11.12;85.79
69060;BME280;56135;37.534;-122.308;2022-07-24T05:59:54;101075.28;;;11.11;86.25
69060;BME280;56135;37.534;-122.308;2022-07-24T06:02:20;101084.16;;;11.05;86.05
69060;BME280;56135;37.534;-122.308;2022-07-24T06:04:46;101085.03;;;11.04;86.74
69060;BME280;56135;37.534;-122.308;2022-07-24T06:07:12;101074.47;;;11.02;85.95
69060;BME280;56135;37.534;-122.308;2022-07-24T06:09:38;101079.81;;;10.99;86.69
69060;BME280;56135;37.534;-122.308;2022-07-24T06:12:04;101078.94;;;10.96;86.55
69060;BME280;56135;37.534;-122.308;2022-07-24T06:14:30;101085.13;;;10.93;86.91
69060;BME280;56135;37.534;-122.308;2022-07-24T06:16:56;101082.50;;;10.92;86.54
69060;BME280;56135;37.534;-122.308;2022-07-24T06:19:23;101084.28;;;10.88;87.23
69060;BME280;56135;37.534;-122.308;2022-07-24T06:21:48;101085.19;;;10.87;86.35
69060;BME280;56135;37.534;-122.308;2022-07-24T06:24:14;101083.41;;;10.86;87.38
69060;BME280;56135;37.534;-122.308;2022-07-24T06:26:40;101086.97;;;10.82;86.74
69060;BME280;56135;37.534;-122.308;2022-07-24T06:29:06;101088.78;;;10.80;87.02
69060;BME280;56135;37.534;-122.308;2022-07-24T06:31:31;101093.19;;;10.78;87.69
69060;BME280;56135;37.534;-122.308;2022-07-24T06:33:57;101087.91;;;10.76;87.50
69060;BME280;56135;37.534;-122.308;2022-07-24T06:36:23;101095.91;;;10.72;86.99
69060;BME280;56135;37.534;-122.308;2022-07-24T06:38:49;101099.41;;;10.71;87.80
69060;BME280;56135;37.534;-122.308;2022-07-24T06:41:15;101092.34;;;10.71;88.53
69060;BME280;56135;37.534;-122.308;2022-07-24T06:43:41;101089.72;;;10.70;87.86
69060;BME280;56135;37.534;-122.308;2022-07-24T06:46:06;101089.75;;;10.68;88.03
69060;BME280;56135;37.534;-122.308;2022-07-24T06:48:32;101080.09;;;10.65;87.62
69060;BME280;56135;37.534;-122.308;2022-07-24T06:50:58;101088.00;;;10.65;87.76
69060;BME280;56135;37.534;-122.308;2022-07-24T06:53:24;101083.63;;;10.61;88.49
69060;BME280;56135;37.534;-122.308;2022-07-24T06:55:50;101086.28;;;10.61;87.66
69060;BME280;56135;37.534;-122.308;2022-07-24T06:58:19;101095.97;;;10.58;87.61
69060;BME280;56135;37.534;-122.308;2022-07-24T07:00:45;101096.03;;;10.53;88.04
69060;BME280;56135;37.534;-122.308;2022-07-24T07:03:11;101099.53;;;10.54;88.70
69060;BME280;56135;37.534;-122.308;2022-07-24T07:05:36;101099.56;;;10.50;88.72
69060;BME280;56135;37.534;-122.308;2022-07-24T07:08:02;101102.19;;;10.49;88.86
69060;BME280;56135;37.534;-122.308;2022-07-24T07:10:28;101100.47;;;10.48;88.86
69060;BME280;56135;37.534;-122.308;2022-07-24T07:12:54;101100.44;;;10.51;88.89
69060;BME280;56135;37.534;-122.308;2022-07-24T07:15:20;101098.72;;;10.47;88.86
69060;BME280;56135;37.534;-122.308;2022-07-24T07:17:45;101093.44;;;10.45;88.62
69060;BME280;56135;37.534;-122.308;2022-07-24T07:20:11;101098.75;;;10.39;88.42
69060;BME280;56135;37.534;-122.308;2022-07-24T07:22:37;101083.78;;;10.38;88.57
69060;BME280;56135;37.534;-122.308;2022-07-24T07:25:03;101091.72;;;10.33;88.50
69060;BME280;56135;37.534;-122.308;2022-07-24T07:27:29;101097.00;;;10.33;89.17
69060;BME280;56135;37.534;-122.308;2022-07-24T07:29:55;101090.84;;;10.31;89.19
69060;BME280;56135;37.534;-122.308;2022-07-24T07:32:21;101091.72;;;10.32;89.13
69060;BME280;56135;37.534;-122.308;2022-07-24T07:34:47;101094.38;;;10.29;88.92
69060;BME280;56135;37.534;-122.308;2022-07-24T07:37:12;101101.44;;;10.27;88.88
69060;BME280;56135;37.534;-122.308;2022-07-24T07:39:38;101097.03;;;10.27;89.72
69060;BME280;56135;37.534;-122.308;2022-07-24T07:42:04;101093.53;;;10.27;88.85
69060;BME280;56135;37.534;-122.308;2022-07-24T07:44:30;101095.28;;;10.23;89.04
69060;BME280;56135;37.534;-122.308;2022-07-24T07:46:56;101090.03;;;10.20;89.04
69060;BME280;56135;37.534;-122.308;2022-07-24T07:49:21;101082.13;;;10.20;90.12
69060;BME280;56135;37.534;-122.308;2022-07-24T07:51:47;101088.28;;;10.19;89.64
69060;BME280;56135;37.534;-122.308;2022-07-24T07:54:16;101094.44;;;10.18;89.56
69060;BME280;56135;37.534;-122.308;2022-07-24T07:56:42;101084.75;;;10.17;89.82
69060;BME280;56135;37.534;-122.308;2022-07-24T07:59:08;101082.13;;;10.15;89.75
69060;BME280;56135;37.534;-122.308;2022-07-24T08:01:34;101078.63;;;10.16;89.87
69060;BME280;56135;37.534;-122.308;2022-07-24T08:04:00;101082.13;;;10.15;90.55
69060;BME280;56135;37.534;-122.308;2022-07-24T08:06:26;101085.66;;;10.14;90.06
69060;BME280;56135;37.534;-122.308;2022-07-24T08:08:52;101082.16;;;10.14;90.16
69060;BME280;56135;37.534;-122.308;2022-07-24T08:11:18;101086.53;;;10.12;90.55
69060;BME280;56135;37.534;-122.308;2022-07-24T08:13:43;101088.34;;;10.08;nan
69060;BME280;56135;37.534;-122.308;2022-07-24T08:16:09;101087.44;;;10.08;90.43
69060;BME280;56135;37.534;-122.308;2022-07-24T08:18:35;101089.25;;;10.06;90.94
69060;BME280;56135;37.534;-122.308;2022-07-24T08:21:01;101082.22;;;10.03;90.21
69060;BME280;56135;37.534;-122.308;2022-07-24T08:23:26;101078.69;;;10.04;90.66
69060;BME280;56135;37.534;-122.308;2022-07-24T08:25:52;101083.97;;;10.06;90.67
69060;BME280;56135;37.534;-122.308;2022-07-24T08:28:18;101084.84;;;10.03;91.02
69060;BME280;56135;37.534;-122.308;2022-07-24T08:30:44;101089.25;;;10.01;90.95
69060;BME280;56135;37.534;-122.308;2022-07-24T08:33:10;101089.28;;;9.98;91.06
69060;BME280;56135;37.534;-122.308;2022-07-24T08:35:35;101086.59;;;10.01;90.81
69060;BME280;56135;37.534;-122.308;2022-07-24T08:38:02;101092.78;;;9.98;91.23
69060;BME280;56135;37.534;-122.308;2022-07-24T08:40:35;101091.88;;;10.02;91.55
69060;BME280;56135;37.534;-122.308;2022-07-24T08:43:06;101092.78;;;9.98;90.90
69060;BME280;56135;37.534;-122.308;2022-07-24T08:45:40;101095.41;;;9.98;90.92
69060;BME280;56135;37.534;-122.308;2022-07-24T08:48:07;101098.06;;;9.98;91.83
69060;BME280;56135;37.534;-122.308;2022-07-24T08:50:33;101095.41;;;9.98;92.00
69060;BME280;56135;37.534;-122.308;2022-07-24T08:52:59;101099.81;;;9.98;91.53
69060;BME280;56135;37.534;-122.308;2022-07-24T08:55:28;101087.53;;;9.95;91.24
69060;BME280;56135;37.534;-122.308;2022-07-24T08:57:57;101085.75;;;9.94;92.07
69060;BME280;56135;37.534;-122.308;2022-07-24T09:00:26;101090.16;;;9.95;92.03
69060;BME280;56135;37.534;-122.308;2022-07-24T09:02:52;101083.13;;;9.93;91.41
69060;BME280;56135;37.534;-122.308;2022-07-24T09:05:18;101086.63;;;9.93;91.78
69060;BME280;56135;37.534;-122.308;2022-07-24T09:07:44;101077.84;;;9.93;92.17
69060;BME280;56135;37.534;-122.308;2022-07-24T09:10:11;101080.50;;;9.93;92.06
69060;BME280;56135;37.534;-122.308;2022-07-24T09:12:38;101079.63;;;9.89;91.84
69060;BME280;56135;37.534;-122.308;2022-07-24T09:15:12;101083.13;;;9.94;92.28
69060;BME280;56135;37.534;-122.308;2022-07-24T09:17:46;101081.38;;;9.92;92.74
69060;BME280;56135;37.534;-122.308;2022-07-24T09:20:12;101083.16;;;9.88;91.47
69060;BME280;56135;37.534;-122.308;2022-07-24T09:22:38;101082.28;;;9.88;92.27
69060;BME280;56135;37.534;-122.308;2022-07-24T09:25:09;101088.44;;;9.88;91.87
69060;BME280;56135;37.534;-122.308;2022-07-24T09:27:35;101092.84;;;9.91;92.88
69060;BME280;56135;37.534;-122.308;2022-07-24T09:30:02;101088.44;;;9.88;91.88
69060;BME280;56135;37.534;-122.308;2022-07-24T09:32:29;101095.44;;;9.95;92.06
69060;BME280;56135;37.534;-122.308;2022-07-24T09:34:54;101090.13;;;10.05;92.53
69060;BME280;56135;37.534;-122.308;2022-07-24T09:37:22;101093.63;;;10.10;91.99
69060;BME280;56135;37.534;-122.308;2022-07-24T09:39:47;101092.72;;;10.14;91.10
69060;BME280;56135;37.534;-122.308;2022-07-24T09:42:14;101092.69;;;10.17;91.23
69060;BME280;56135;37.534;-122.308;2022-07-24T09:44:40;101101.47;;;10.22;90.88
69060;BME280;56135;37.534;-122.308;2022-07-24T09:47:06;101097.03;;;10.26;90.53
69060;BME280;56135;37.534;-122.308;2022-07-24T09:49:32;101088.22;;;10.30;90.88
69060;BME280;56135;37.534;-122.308;2022-07-24T09:54:31;101085.53;;;10.41;90.76
69060;BME280;56135;37.534;-122.308;2022-07-24T10:00:04;101091.63;;;10.52;90.25
69060;BME280;56135;37.534;-122.308;2022-07-24T10:02:32;101085.47;;;10.53;90.03
69060;BME280;56135;37.534;-122.308;2022-07-24T10:04:59;101084.56;;;10.57;89.32
69060;BME280;56135;37.534;-122.308;2022-07-24T10:07:26;101082.75;;;10.62;90.09
69060;BME280;56135;37.534;-122.308;2022-07-24T10:09:54;101074.81;;;10.65;89.46
69060;BME280;56135;37.534;-122.308;2022-07-24T10:12:24;101077.38;;;10.70;89.20
69060;BME280;56135;37.534;-122.308;2022-07-24T10:14:51;101069.47;;;10.73;89.54
69060;BME280;56135;37.534;-122.308;2022-07-24T10:17:18;101073.84;;;10.76;89.21
69060;BME280;56135;37.534;-122.308;2022-07-24T10:19:45;101075.53;;;10.83;89.56
69060;BME280;56135;37.534;-122.308;2022-07-24T10:22:17;101077.25;;;10.87;88.92
69060;BME280;56135;37.534;-122.308;2022-07-24T10:27:22;101077.22;;;10.93;88.08
69060;BME280;56135;37.534;-122.308;2022-07-24T10:29:48;101071.03;;;10.96;89.03
69060;BME280;56135;37.534;-122.308;2022-07-24T10:32:14;101076.25;;;11.00;87.92
69060;BME280;56135;37.534;-122.308;2022-07-24T10:37:15;101077.09;;;11.04;88.50
69060;BME280;56135;37.534;-122.308;2022-07-24T10:42:29;101077.06;;;11.09;88.18
69060;BME280;56135;37.534;-122.308;2022-07-24T10:47:39;101082.31;;;11.13;87.75
69060;BME280;56135;37.534;-122.308;2022-07-24T10:50:05;101077.00;;;11.15;87.77
69060;BME280;56135;37.534;-122.308;2022-07-24T10:52:32;101087.56;;;11.16;87.87
69060;BME280;56135;37.534;-122.308;2022-07-24T10:58:01;101089.31;;;11.17;87.17
69060;BME280;56135;37.534;-122.308;2022-07-24T11:00:35;101083.09;;;11.22;87.83
69060;BME280;56135;37.534;-122.308;2022-07-24T11:03:02;101082.19;;;11.24;87.16
69060;BME280;56135;37.534;-122.308;2022-07-24T11:05:29;101086.59;;;11.25;87.17
69060;BME280;56135;37.534;-122.308;2022-07-24T11:10:44;101080.41;;;11.26;87.51
69060;BME280;56135;37.534;-122.308;2022-07-24T11:18:39;101076.91;;;11.27;86.94
69060;BME280;56135;37.534;-122.308;2022-07-24T11:21:05;101070.69;;;11.28;86.47
69060;BME280;56135;37.534;-122.308;2022-07-24T11:23:31;101074.22;;;11.29;86.32
69060;BME280;56135;37.534;-122.308;2022-07-24T11:31:30;101060.09;;;11.30;86.37
69060;BME280;56135;37.534;-122.308;2022-07-24T11:33:57;101074.19;;;11.32;86.49
69060;BME280;56135;37.534;-122.308;2022-07-24T11:36:22;101072.41;;;11.34;86.79
69060;BME280;56135;37.534;-122.308;2022-07-24T11:38:48;101076.81;;;11.33;85.81
69060;BME280;56135;37.534;-122.308;2022-07-24T11:41:16;101082.13;;;11.32;86.32
69060;BME280;56135;37.534;-122.308;2022-07-24T11:43:51;101084.75;;;11.33;85.84
69060;BME280;56135;37.534;-122.308;2022-07-24T11:46:33;101082.09;;;11.33;86.85
69060;BME280;56135;37.534;-122.308;2022-07-24T11:49:05;101086.53;;;11.33;86.49
69060;BME280;56135;37.534;-122.308;2022-07-24T11:51:31;101086.53;;;11.31;85.84
69060;BME280;56135;37.534;-122.308;2022-07-24T11:53:57;101090.06;;;11.32;86.98
69060;BME280;56135;37.534;-122.308;2022-07-24T11:56:23;101092.69;;;11.33;86.98
69060;BME280;56135;37.534;-122.308;2022-07-24T11:58:49;101084.72;;;11.35;87.07
69060;BME280;56135;37.534;-122.308;2022-07-24T12:01:21;101090.03;;;11.37;87.17
69060;BME280;56135;37.534;-122.308;2022-07-24T12:06:15;101087.38;;;11.37;87.06
69060;BME280;56135;37.534;-122.308;2022-07-24T12:08:41;101090.00;;;11.35;86.61
69060;BME280;56135;37.534;-122.308;2022-07-24T12:11:07;101090.03;;;11.33;86.76
69060;BME280;56135;37.534;-122.308;2022-07-24T12:13:33;101087.44;;;11.30;86.34
69060;BME280;56135;37.534;-122.308;2022-07-24T12:15:58;101093.59;;;11.29;86.39
69060;BME280;56135;37.534;-122.308;2022-07-24T12:18:24;101098.88;;;11.34;86.22
69060;BME280;56135;37.534;-122.308;2022-07-24T12:20:50;101104.16;;;11.34;85.73
69060;BME280;56135;37.534;-122.308;2022-07-24T12:23:16;101105.88;;;11.38;86.17
69060;BME280;56135;37.534;-122.308;2022-07-24T12:25:44;101106.78;;;11.34;85.64
69060;BME280;56135;37.534;-122.308;2022-07-24T12:28:13;101113.81;;;11.35;85.52
69060;BME280;56135;37.534;-122.308;2022-07-24T12:30:43;101112.09;;;11.34;86.08
69060;BME280;56135;37.534;-122.308;2022-07-24T12:38:32;101108.59;;;11.30;85.95
69060;BME280;56135;37.534;-122.308;2022-07-24T12:43:27;101115.59;;;11.34;85.62
69060;BME280;56135;37.534;-122.308;2022-07-24T12:46:06;101113.84;;;11.33;85.92
69060;BME280;56135;37.534;-122.308;2022-07-24T12:48:32;101107.66;;;11.34;85.99
69060;BME280;56135;37.534;-122.308;2022-07-24T12:51:03;101102.41;;;11.31;86.21
69060;BME280;56135;37.534;-122.308;2022-07-24T12:53:30;101107.66;;;11.34;85.98
69060;BME280;56135;37.534;-122.308;2022-07-24T12:56:06;101110.31;;;11.34;85.97
69060;BME280;56135;37.534;-122.308;2022-07-24T12:58:52;101105.91;;;11.32;86.02
69060;BME280;56135;37.534;-122.308;2022-07-24T13:01:18;101103.25;;;11.33;86.65